Time;durP1;ratioP1;P1;durP2;ratioP2;P2;SDS_P1;SDS_P2;PMS_P1;PMS_P2;Temp;Humidity;BMP_temperature;BMP_pressure;BME280_temperature;BME280_humidity;BME280_pressure;Samples;Min_cycle;Max_cycle;Signal;HPM_P1;HPM_P2
2023/08/11 00:01:58;;;;;;;14.18;13.18;;;12.30;99.90;;;;;;4973221;28;20042;-73
2023/08/11 00:04:25;;;;;;;14.60;13.27;;;12.20;99.90;;;;;;4953135;28;20724;-73
2023/08/11 00:06:52;;;;;;;22.33;14.00;;;12.20;99.90;;;;;;4971100;28;20042;-73
2023/08/11 00:09:19;;;;;;;15.25;13.93;;;12.30;99.90;;;;;;4970990;28;20132;-74
2023/08/11 00:11:46;;;;;;;14.73;13.57;;;12.30;99.90;;;;;;4968234;28;20034;-74
2023/08/11 00:14:12;;;;;;;16.23;14.63;;;12.10;99.90;;;;;;4969779;28;20094;-74
2023/08/11 00:16:39;;;;;;;16.20;14.80;;;12.10;99.90;;;;;;4971340;28;20116;-75
2023/08/11 00:19:06;;;;;;;15.02;13.70;;;12.00;99.90;;;;;;4973608;28;20059;-75
2023/08/11 00:21:33;;;;;;;15.90;14.38;;;11.90;99.90;;;;;;4969412;28;20061;-74
2023/08/11 00:23:59;;;;;;;16.85;15.13;;;11.80;99.90;;;;;;4973420;28;20563;-74
2023/08/11 00:26:26;;;;;;;16.48;15.02;;;11.80;99.90;;;;;;4968265;28;20614;-75
2023/08/11 00:28:53;;;;;;;15.45;13.80;;;12.00;99.90;;;;;;4973922;28;20050;-74
2023/08/11 00:31:20;;;;;;;15.65;14.30;;;11.90;99.90;;;;;;4976128;28;20396;-74
2023/08/11 00:33:48;;;;;;;15.55;14.45;;;11.90;99.90;;;;;;4972248;28;20112;-74
2023/08/11 00:36:15;;;;;;;16.48;14.77;;;12.00;99.90;;;;;;4955687;28;20074;-74
2023/08/11 00:38:42;;;;;;;16.15;14.57;;;12.00;99.90;;;;;;4952281;28;20627;-74
2023/08/11 00:41:08;;;;;;;14.90;13.38;;;11.80;99.90;;;;;;4966686;28;20042;-74
2023/08/11 00:43:35;;;;;;;14.57;13.23;;;11.80;99.90;;;;;;4974369;28;20045;-75
2023/08/11 00:46:11;;;;;;;14.70;13.30;;;11.60;99.90;;;;;;4971968;28;20058;-74
2023/08/11 00:48:42;;;;;;;15.52;14.13;;;11.70;99.90;;;;;;4972810;28;20050;-74
2023/08/11 00:51:13;;;;;;;14.95;13.70;;;11.70;99.90;;;;;;4964568;28;20870;-75
2023/08/11 00:53:41;;;;;;;15.85;14.52;;;11.50;99.90;;;;;;4969967;28;20046;-74
2023/08/11 00:56:08;;;;;;;15.57;14.10;;;11.40;99.90;;;;;;4972438;28;20528;-74
2023/08/11 00:58:36;;;;;;;15.80;14.38;;;11.40;99.90;;;;;;4974338;28;20042;-75
2023/08/11 01:01:04;;;;;;;15.18;13.73;;;11.50;99.90;;;;;;4973137;28;20654;-74
2023/08/11 01:03:31;;;;;;;16.50;14.02;;;11.60;99.90;;;;;;4967895;28;20531;-74
2023/08/11 01:06:27;;;;;;;16.38;14.68;;;11.70;99.90;;;;;;4971702;28;20097;-74
2023/08/11 01:09:12;;;;;;;15.02;13.82;;;11.70;99.90;;;;;;4971970;28;20050;-73
2023/08/11 01:12:17;;;;;;;14.90;13.75;;;11.70;99.90;;;;;;4969368;28;20050;-74
2023/08/11 01:15:06;;;;;;;15.38;13.85;;;11.70;99.90;;;;;;4969062;28;20092;-76
2023/08/11 01:17:35;;;;;;;16.13;14.18;;;11.60;99.90;;;;;;4955696;28;20053;-75
2023/08/11 01:20:09;;;;;;;15.77;14.15;;;11.40;99.90;;;;;;4968252;28;20042;-75
2023/08/11 01:22:38;;;;;;;14.95;13.65;;;11.40;99.90;;;;;;4968346;28;20610;-75
2023/08/11 01:25:09;;;;;;;16.08;14.40;;;11.50;99.90;;;;;;4954325;28;20058;-75
2023/08/11 01:27:36;;;;;;;14.50;13.43;;;11.40;99.90;;;;;;4969431;28;20442;-75
2023/08/11 01:30:06;;;;;;;16.10;14.55;;;11.30;99.90;;;;;;4968810;28;20053;-75
2023/08/11 01:32:32;;;;;;;16.42;15.02;;;11.30;99.90;;;;;;4968382;28;20145;-75
2023/08/11 01:34:59;;;;;;;16.88;15.48;;;11.30;99.90;;;;;;4973174;28;20053;-75
2023/08/11 01:37:26;;;;;;;15.60;14.32;;;11.20;99.90;;;;;;4962355;28;20838;-75
2023/08/11 01:39:53;;;;;;;16.58;15.10;;;11.20;99.90;;;;;;4969340;28;20109;-75
2023/08/11 01:42:20;;;;;;;16.92;15.63;;;11.30;99.90;;;;;;4964190;28;20043;-76
2023/08/11 01:44:48;;;;;;;17.70;16.20;;;11.40;99.90;;;;;;4953212;28;20042;-76
2023/08/11 01:47:19;;;;;;;17.65;16.13;;;11.40;99.90;;;;;;4965150;28;20050;-76
2023/08/11 01:49:47;;;;;;;15.60;14.02;;;11.50;99.90;;;;;;4968656;28;20042;-76
2023/08/11 01:52:15;;;;;;;16.95;15.10;;;11.50;99.90;;;;;;4962698;28;20045;-76
2023/08/11 01:54:43;;;;;;;17.00;15.48;;;11.40;99.90;;;;;;4969827;28;20610;-76
2023/08/11 01:57:10;;;;;;;18.40;16.75;;;11.40;99.90;;;;;;4986253;28;20096;-76
2023/08/11 01:59:37;;;;;;;17.83;16.25;;;11.40;99.90;;;;;;4985972;28;20065;-75
2023/08/11 02:02:03;;;;;;;19.38;16.98;;;11.50;99.90;;;;;;4969066;28;20034;-75
2023/08/11 02:04:31;;;;;;;16.77;15.38;;;11.40;99.90;;;;;;4967675;28;21563;-75
2023/08/11 02:06:58;;;;;;;16.98;15.45;;;11.30;99.90;;;;;;4967245;28;20094;-76
2023/08/11 02:09:24;;;;;;;17.40;15.60;;;11.40;99.90;;;;;;4968635;28;20046;-76
2023/08/11 02:11:52;;;;;;;16.83;15.38;;;11.30;99.90;;;;;;4965860;28;20136;-76
2023/08/11 02:14:19;;;;;;;16.65;15.13;;;11.20;99.90;;;;;;4953405;28;20065;-75
2023/08/11 02:16:45;;;;;;;17.48;16.08;;;11.20;99.90;;;;;;4971384;28;20046;-75
2023/08/11 02:19:14;;;;;;;18.70;17.17;;;11.20;99.90;;;;;;4986256;28;20050;-76
2023/08/11 02:21:42;;;;;;;15.85;14.35;;;11.10;99.90;;;;;;4973133;28;20045;-75
2023/08/11 02:24:09;;;;;;;16.30;14.90;;;10.90;99.90;;;;;;4957479;28;20181;-76
2023/08/11 02:26:37;;;;;;;16.52;15.13;;;10.80;99.90;;;;;;4971063;28;20046;-76
2023/08/11 02:29:03;;;;;;;16.05;14.55;;;10.80;99.90;;;;;;4971141;28;20134;-75
2023/08/11 02:31:32;;;;;;;16.63;15.27;;;10.80;99.90;;;;;;4970411;28;20050;-76
2023/08/11 02:33:59;;;;;;;16.95;15.65;;;10.80;99.90;;;;;;4973099;28;20050;-75
2023/08/11 02:36:26;;;;;;;17.35;15.93;;;10.80;99.90;;;;;;4970795;28;20057;-75
2023/08/11 02:38:54;;;;;;;16.85;15.70;;;10.70;99.90;;;;;;4970490;28;20046;-75
2023/08/11 02:41:21;;;;;;;16.50;15.35;;;10.70;99.90;;;;;;4967277;28;20101;-76
2023/08/11 02:43:48;;;;;;;17.27;15.98;;;10.60;99.90;;;;;;4973567;28;20042;-75
2023/08/11 02:46:14;;;;;;;17.40;16.23;;;10.60;99.90;;;;;;4971088;28;20054;-76
2023/08/11 02:48:43;;;;;;;17.30;15.93;;;10.70;99.90;;;;;;4975650;28;20085;-75
2023/08/11 02:51:09;;;;;;;18.55;17.15;;;10.80;99.90;;;;;;4977194;28;20050;-75
2023/08/11 02:53:36;;;;;;;20.25;18.13;;;10.70;99.90;;;;;;4971453;28;20053;-77
2023/08/11 02:56:06;;;;;;;19.00;17.30;;;10.60;99.90;;;;;;4969546;28;20058;-75
2023/08/11 02:58:33;;;;;;;18.70;17.00;;;10.70;99.90;;;;;;4971516;28;22909;-75
2023/08/11 03:01:01;;;;;;;18.85;17.35;;;10.70;99.90;;;;;;4973346;28;20531;-74
2023/08/11 03:03:28;;;;;;;19.88;18.17;;;10.80;99.90;;;;;;4967748;28;20059;-74
2023/08/11 03:05:56;;;;;;;20.80;18.85;;;10.90;99.90;;;;;;4969194;28;20528;-74
2023/08/11 03:08:23;;;;;;;20.65;17.85;;;10.80;99.90;;;;;;4953585;28;20051;-74
2023/08/11 03:10:50;;;;;;;18.42;16.88;;;10.80;99.90;;;;;;4972152;28;20046;-77
2023/08/11 03:13:32;;;;;;;18.30;16.70;;;10.80;99.90;;;;;;4971638;28;20046;-76
2023/08/11 03:15:59;;;;;;;20.15;18.05;;;10.80;99.90;;;;;;4972381;28;20054;-74
2023/08/11 03:18:28;;;;;;;18.90;17.38;;;10.70;99.90;;;;;;4974752;28;21548;-74
2023/08/11 03:20:57;;;;;;;19.75;17.98;;;10.60;99.90;;;;;;4972714;28;20085;-74
2023/08/11 03:23:44;;;;;;;21.92;19.70;;;10.60;99.90;;;;;;4973309;28;20126;-75
2023/08/11 03:26:11;;;;;;;20.75;19.00;;;10.80;99.90;;;;;;4972165;28;20031;-75
2023/08/11 03:28:38;;;;;;;21.13;19.02;;;10.90;99.90;;;;;;4972111;28;20038;-75
2023/08/11 03:31:05;;;;;;;21.27;19.25;;;10.90;99.90;;;;;;4984662;28;20039;-75
2023/08/11 03:33:35;;;;;;;20.98;19.17;;;10.90;99.90;;;;;;4972180;28;20146;-76
2023/08/11 03:36:07;;;;;;;21.13;19.33;;;11.00;99.90;;;;;;4962450;28;20065;-75
2023/08/11 03:38:35;;;;;;;20.48;18.85;;;10.80;99.90;;;;;;4975256;28;20057;-75
2023/08/11 03:41:02;;;;;;;21.15;18.88;;;10.70;99.90;;;;;;4979216;28;20054;-76
2023/08/11 03:43:29;;;;;;;21.83;19.73;;;10.60;99.90;;;;;;4976048;28;20058;-75
2023/08/11 03:45:56;;;;;;;19.58;17.90;;;10.70;99.90;;;;;;4963736;28;20039;-75
2023/08/11 03:48:23;;;;;;;22.02;19.98;;;10.70;99.90;;;;;;4972516;28;20049;-75
2023/08/11 03:50:50;;;;;;;22.63;20.38;;;10.60;99.90;;;;;;4966954;28;20046;-75
2023/08/11 03:53:16;;;;;;;20.77;18.88;;;10.60;99.90;;;;;;4956716;28;20108;-76
2023/08/11 03:55:45;;;;;;;20.42;18.80;;;10.50;99.90;;;;;;4967838;28;20041;-75
2023/08/11 03:58:14;;;;;;;20.58;18.45;;;10.50;99.90;;;;;;4970212;28;21019;-75
2023/08/11 04:00:43;;;;;;;20.50;18.77;;;10.50;99.90;;;;;;4969102;28;20053;-75
2023/08/11 04:03:12;;;;;;;19.70;17.92;;;10.60;99.90;;;;;;4960672;28;20042;-76
2023/08/11 04:05:39;;;;;;;19.30;17.60;;;10.80;99.90;;;;;;4965049;28;20626;-75
2023/08/11 04:08:06;;;;;;;18.70;16.70;;;10.90;99.90;;;;;;4968150;28;20053;-75
2023/08/11 04:10:35;;;;;;;18.13;16.67;;;10.70;99.90;;;;;;4965786;28;20049;-75
2023/08/11 04:13:01;;;;;;;17.60;16.10;;;10.60;99.90;;;;;;4965877;28;20034;-75
2023/08/11 04:15:29;;;;;;;18.67;16.90;;;10.70;99.90;;;;;;4971141;28;20050;-75
2023/08/11 04:17:57;;;;;;;18.48;16.85;;;10.60;99.90;;;;;;4972151;28;20073;-76
2023/08/11 04:20:23;;;;;;;18.52;16.98;;;10.60;99.90;;;;;;4963266;28;20054;-76
2023/08/11 04:22:50;;;;;;;18.20;16.70;;;10.60;99.90;;;;;;4970226;28;20093;-77
2023/08/11 04:25:17;;;;;;;18.75;16.95;;;10.60;99.90;;;;;;4973831;28;20042;-76
2023/08/11 04:27:46;;;;;;;18.40;16.98;;;10.50;99.90;;;;;;4970862;28;20053;-76
2023/08/11 04:30:13;;;;;;;17.80;16.40;;;10.40;99.90;;;;;;4962020;28;20075;-76
2023/08/11 04:32:43;;;;;;;19.65;17.85;;;10.50;99.90;;;;;;4969365;28;20062;-76
2023/08/11 04:35:10;;;;;;;20.83;18.92;;;10.60;99.90;;;;;;4968969;28;20137;-76
2023/08/11 04:37:39;;;;;;;20.33;18.38;;;10.70;99.90;;;;;;4966786;28;21536;-76
2023/08/11 04:40:10;;;;;;;20.08;18.40;;;10.60;99.90;;;;;;4968091;28;20035;-74
2023/08/11 04:42:41;;;;;;;20.20;18.20;;;10.70;99.90;;;;;;4965580;28;20050;-75
2023/08/11 04:45:11;;;;;;;20.27;18.65;;;10.70;99.90;;;;;;4966633;28;20051;-75
2023/08/11 04:47:40;;;;;;;19.60;18.10;;;10.70;99.90;;;;;;4954825;28;22750;-74
2023/08/11 04:50:09;;;;;;;20.55;18.73;;;10.80;99.90;;;;;;4951670;28;20055;-74
2023/08/11 04:52:37;;;;;;;20.60;18.73;;;10.80;99.90;;;;;;4968697;28;20046;-74
2023/08/11 04:55:05;;;;;;;20.73;18.92;;;10.70;99.90;;;;;;4966691;28;20654;-75
2023/08/11 04:57:32;;;;;;;21.75;19.70;;;10.90;99.90;;;;;;4967030;28;20054;-76
2023/08/11 05:00:00;;;;;;;22.00;19.80;;;10.80;99.90;;;;;;4966908;28;20086;-74
2023/08/11 05:02:30;;;;;;;20.42;18.38;;;11.00;99.90;;;;;;4983521;28;20316;-75
2023/08/11 05:04:57;;;;;;;19.15;17.60;;;11.00;99.90;;;;;;4974284;28;20038;-75
2023/08/11 05:07:24;;;;;;;21.02;18.90;;;11.10;99.90;;;;;;4967384;28;20169;-75
2023/08/11 05:09:51;;;;;;;20.25;18.45;;;11.20;99.90;;;;;;4965287;28;20054;-74
2023/08/11 05:12:18;;;;;;;21.15;19.08;;;11.20;99.90;;;;;;4965892;28;20120;-76
2023/08/11 05:14:47;;;;;;;20.38;18.67;;;11.20;99.90;;;;;;4969511;28;20056;-76
2023/08/11 05:17:14;;;;;;;19.83;17.88;;;11.30;99.90;;;;;;4966723;28;20030;-74
2023/08/11 05:19:40;;;;;;;19.48;17.92;;;11.40;99.90;;;;;;4965580;28;20047;-76
2023/08/11 05:22:07;;;;;;;20.52;18.65;;;11.40;99.90;;;;;;4964525;28;20560;-76
2023/08/11 05:24:34;;;;;;;19.85;18.05;;;11.50;99.90;;;;;;4969447;28;20053;-76
2023/08/11 05:27:01;;;;;;;20.20;18.40;;;11.60;99.90;;;;;;4971664;28;20038;-76
2023/08/11 05:29:27;;;;;;;20.02;18.27;;;11.70;99.90;;;;;;4964996;28;20042;-76
2023/08/11 05:31:54;;;;;;;20.40;18.80;;;11.90;99.90;;;;;;4971138;28;20039;-76
2023/08/11 05:34:21;;;;;;;22.30;19.13;;;12.00;99.90;;;;;;4968126;28;20899;-76
2023/08/11 05:36:49;;;;;;;20.17;18.40;;;12.30;99.90;;;;;;4967416;28;20128;-76
2023/08/11 05:39:16;;;;;;;19.45;17.40;;;12.40;99.90;;;;;;4969088;28;20692;-76
2023/08/11 05:41:43;;;;;;;15.45;14.13;;;12.60;99.90;;;;;;4964084;28;20043;-74
2023/08/11 05:44:10;;;;;;;16.88;15.07;;;12.80;99.90;;;;;;4964546;28;20046;-77
2023/08/11 05:46:36;;;;;;;16.45;14.82;;;13.00;99.90;;;;;;4970821;28;20100;-76
2023/08/11 05:49:03;;;;;;;16.13;14.60;;;13.30;99.90;;;;;;4968706;28;20038;-76
2023/08/11 05:51:36;;;;;;;15.60;14.27;;;13.60;99.90;;;;;;4966865;28;20056;-76
2023/08/11 05:54:03;;;;;;;14.35;13.13;;;13.70;99.90;;;;;;4968346;28;20051;-76
2023/08/11 05:56:30;;;;;;;14.75;13.65;;;13.80;99.90;;;;;;4963878;28;20133;-76
2023/08/11 05:58:57;;;;;;;13.50;12.18;;;13.90;99.90;;;;;;4977289;28;20034;-76
2023/08/11 06:01:24;;;;;;;13.23;12.02;;;14.20;99.90;;;;;;4951792;28;20145;-76
2023/08/11 06:03:50;;;;;;;13.10;10.90;;;14.50;99.90;;;;;;4968337;28;20126;-76
2023/08/11 06:06:17;;;;;;;12.45;11.27;;;14.80;99.90;;;;;;4975817;28;20046;-76
2023/08/11 06:08:45;;;;;;;13.95;12.63;;;15.00;99.90;;;;;;4954389;28;20042;-76
2023/08/11 06:11:12;;;;;;;15.25;13.93;;;15.20;99.90;;;;;;4973012;28;20729;-76
2023/08/11 06:13:40;;;;;;;16.35;14.68;;;15.40;99.90;;;;;;4971429;28;20046;-76
2023/08/11 06:16:06;;;;;;;17.08;15.68;;;15.60;99.90;;;;;;4969959;28;20046;-76
2023/08/11 06:18:33;;;;;;;17.35;16.15;;;15.80;99.90;;;;;;4966749;28;20053;-76
2023/08/11 06:21:03;;;;;;;17.60;16.10;;;16.00;99.90;;;;;;4964915;28;20134;-77
2023/08/11 06:23:31;;;;;;;19.58;18.20;;;16.20;99.90;;;;;;4964458;28;20049;-74
2023/08/11 06:25:58;;;;;;;20.65;19.05;;;16.40;99.90;;;;;;4973623;28;20042;-74
2023/08/11 06:28:25;;;;;;;21.95;20.55;;;16.70;99.90;;;;;;4969782;28;21365;-75
2023/08/11 06:30:52;;;;;;;21.85;20.50;;;17.00;99.90;;;;;;4969501;28;20069;-74
2023/08/11 06:33:19;;;;;;;21.83;20.40;;;17.30;99.90;;;;;;4967408;28;20128;-74
2023/08/11 06:35:46;;;;;;;23.58;21.88;;;17.60;99.90;;;;;;4969729;28;20811;-75
2023/08/11 06:38:13;;;;;;;23.13;21.45;;;17.90;99.90;;;;;;4967895;28;20046;-74
2023/08/11 06:40:40;;;;;;;23.98;22.38;;;18.10;99.90;;;;;;4965810;28;20041;-74
2023/08/11 06:43:07;;;;;;;23.38;22.02;;;18.40;99.90;;;;;;4963070;28;20101;-74
2023/08/11 06:45:33;;;;;;;24.13;22.48;;;18.80;99.90;;;;;;4963062;28;20070;-76
2023/08/11 06:48:00;;;;;;;23.02;21.33;;;18.70;99.90;;;;;;4954044;28;20054;-76
2023/08/11 06:50:27;;;;;;;24.45;22.73;;;19.10;99.90;;;;;;4951370;28;20043;-76
2023/08/11 06:52:54;;;;;;;24.70;23.02;;;19.30;99.90;;;;;;4982284;28;20050;-75
2023/08/11 06:55:25;;;;;;;24.27;22.60;;;19.20;99.90;;;;;;4963955;28;20137;-76
2023/08/11 06:57:51;;;;;;;24.67;22.85;;;19.40;99.90;;;;;;4964471;28;20511;-76
2023/08/11 07:00:18;;;;;;;25.58;23.77;;;19.60;99.90;;;;;;4964484;28;20047;-74
2023/08/11 07:02:45;;;;;;;24.17;22.63;;;19.80;99.90;;;;;;4968202;28;20046;-75
2023/08/11 07:05:12;;;;;;;24.30;22.63;;;19.90;99.90;;;;;;4970569;28;20064;-76
2023/08/11 07:07:39;;;;;;;25.67;23.80;;;19.90;99.90;;;;;;4967140;28;20109;-76
2023/08/11 07:10:06;;;;;;;24.33;22.83;;;20.10;99.90;;;;;;4968041;28;20058;-74
2023/08/11 07:12:32;;;;;;;25.23;23.70;;;20.50;99.90;;;;;;4963405;28;20725;-74
2023/08/11 07:14:59;;;;;;;24.88;23.17;;;20.60;99.90;;;;;;4969690;28;20074;-76
2023/08/11 07:17:27;;;;;;;25.50;23.80;;;20.50;99.90;;;;;;4968661;28;20425;-76
2023/08/11 07:19:54;;;;;;;24.85;23.27;;;20.60;99.90;;;;;;4965798;28;20042;-76
2023/08/11 07:22:20;;;;;;;24.60;23.02;;;20.70;99.90;;;;;;4966091;28;20410;-74
2023/08/11 07:24:47;;;;;;;24.50;22.58;;;20.70;99.90;;;;;;4968582;28;20515;-73
2023/08/11 07:27:14;;;;;;;24.90;23.10;;;20.60;99.90;;;;;;4969411;28;20051;-75
2023/08/11 07:29:44;;;;;;;25.05;23.13;;;20.70;99.90;;;;;;4967069;28;20591;-75
2023/08/11 07:32:11;;;;;;;23.92;22.42;;;21.10;99.90;;;;;;4984378;28;20042;-72
2023/08/11 07:34:38;;;;;;;25.25;23.55;;;21.20;99.90;;;;;;4966635;28;20505;-75
2023/08/11 07:37:05;;;;;;;26.60;24.80;;;21.20;99.90;;;;;;4971231;28;20050;-75
2023/08/11 07:39:38;;;;;;;25.77;24.17;;;21.30;99.90;;;;;;4965434;28;20066;-72
2023/08/11 07:42:05;;;;;;;25.13;23.63;;;21.30;99.90;;;;;;4950226;28;20050;-72
2023/08/11 07:44:33;;;;;;;25.08;23.48;;;21.20;99.90;;;;;;4968257;28;20071;-72
2023/08/11 07:47:03;;;;;;;25.30;23.73;;;21.30;99.90;;;;;;4968302;28;20046;-72
2023/08/11 07:49:30;;;;;;;25.02;23.50;;;21.40;99.90;;;;;;4967445;28;20132;-72
2023/08/11 07:51:57;;;;;;;26.05;24.20;;;21.50;99.90;;;;;;4968454;28;20706;-72
2023/08/11 07:54:24;;;;;;;25.60;23.98;;;21.50;99.90;;;;;;4965389;28;20050;-72
2023/08/11 07:56:51;;;;;;;26.40;24.25;;;21.80;99.90;;;;;;4964140;28;20062;-72
2023/08/11 07:59:18;;;;;;;26.17;24.58;;;22.00;99.90;;;;;;4969007;28;20100;-72
2023/08/11 08:01:46;;;;;;;25.95;24.10;;;22.10;99.90;;;;;;4948220;28;20042;-72
2023/08/11 08:04:13;;;;;;;26.33;24.38;;;22.30;99.90;;;;;;4968554;28;20572;-72
2023/08/11 08:06:46;;;;;;;26.63;25.00;;;22.60;99.90;;;;;;4981173;28;20065;-72
2023/08/11 08:09:14;;;;;;;26.40;24.80;;;22.60;99.90;;;;;;4965221;28;20493;-72
2023/08/11 08:11:43;;;;;;;26.23;24.52;;;22.60;99.90;;;;;;4961772;28;20481;-72
2023/08/11 08:14:11;;;;;;;26.67;24.92;;;22.60;99.90;;;;;;4970023;28;20136;-72
2023/08/11 08:16:44;;;;;;;25.00;23.40;;;22.60;99.90;;;;;;4963019;28;20440;-72
2023/08/11 08:19:11;;;;;;;26.08;24.45;;;22.60;99.90;;;;;;4963902;28;20066;-72
2023/08/11 08:21:39;;;;;;;26.90;25.20;;;22.80;99.90;;;;;;4959970;28;20137;-72
2023/08/11 08:24:07;;;;;;;26.88;24.85;;;22.70;99.90;;;;;;4973267;28;20042;-72
2023/08/11 08:26:35;;;;;;;27.17;25.35;;;22.90;99.90;;;;;;4963229;28;20050;-73
2023/08/11 08:29:03;;;;;;;27.88;26.10;;;23.20;99.90;;;;;;4968207;28;20054;-71
2023/08/11 08:31:30;;;;;;;28.92;26.67;;;23.30;99.90;;;;;;4966731;28;20053;-72
2023/08/11 08:33:57;;;;;;;28.27;26.48;;;23.60;99.90;;;;;;4964381;28;20038;-73
2023/08/11 08:36:24;;;;;;;29.38;27.40;;;23.60;99.90;;;;;;4967566;28;20047;-72
2023/08/11 08:38:52;;;;;;;29.15;27.35;;;23.60;99.90;;;;;;4967680;28;20042;-72
2023/08/11 08:41:23;;;;;;;28.90;27.20;;;23.90;99.90;;;;;;4964745;28;20038;-72
2023/08/11 08:43:53;;;;;;;29.35;27.45;;;24.00;99.90;;;;;;4965348;28;20048;-72
2023/08/11 08:46:21;;;;;;;29.27;27.38;;;23.50;99.90;;;;;;4963365;28;20102;-72
2023/08/11 08:49:18;;;;;;;29.25;27.55;;;23.70;99.90;;;;;;4966720;28;20073;-72
2023/08/11 08:51:44;;;;;;;27.15;25.45;;;23.80;99.90;;;;;;4966234;28;20050;-73
2023/08/11 08:54:11;;;;;;;28.65;25.90;;;23.70;99.90;;;;;;4983616;28;20062;-75
2023/08/11 08:56:39;;;;;;;27.20;25.35;;;23.30;99.90;;;;;;4966005;28;20054;-74
2023/08/11 08:59:06;;;;;;;27.50;25.50;;;23.70;99.90;;;;;;4971219;28;20049;-74
2023/08/11 09:01:35;;;;;;;27.88;26.08;;;24.00;99.90;;;;;;4966289;28;20034;-74
2023/08/11 09:04:03;;;;;;;28.23;26.15;;;24.00;99.90;;;;;;4969229;28;20984;-74
2023/08/11 09:06:31;;;;;;;26.00;24.27;;;23.90;99.90;;;;;;4963289;28;20041;-74
2023/08/11 09:08:59;;;;;;;28.13;25.88;;;24.30;99.90;;;;;;4964666;28;20051;-75
2023/08/11 09:11:26;;;;;;;27.50;25.42;;;24.40;99.90;;;;;;4961106;28;20050;-74
2023/08/11 09:13:53;;;;;;;26.67;24.88;;;24.70;99.90;;;;;;4966949;28;20046;-73
2023/08/11 09:16:23;;;;;;;28.15;25.95;;;24.80;99.90;;;;;;4968519;28;20058;-74
2023/08/11 09:18:50;;;;;;;27.83;25.67;;;25.00;99.90;;;;;;4965031;28;20097;-75
2023/08/11 09:21:17;;;;;;;26.95;25.10;;;24.80;99.90;;;;;;4963686;28;20058;-74
2023/08/11 09:23:43;;;;;;;27.88;25.65;;;24.90;99.90;;;;;;4968242;28;20047;-74
2023/08/11 09:26:10;;;;;;;28.15;25.92;;;25.00;99.90;;;;;;4952345;28;20038;-75
2023/08/11 09:28:39;;;;;;;27.90;25.80;;;25.00;99.90;;;;;;4962629;28;20050;-75
2023/08/11 09:31:06;;;;;;;32.63;30.42;;;24.90;99.90;;;;;;4964440;28;20128;-75
2023/08/11 09:33:34;;;;;;;32.88;30.48;;;24.70;99.90;;;;;;4952822;28;20047;-74
2023/08/11 09:36:01;;;;;;;31.52;29.27;;;24.60;99.90;;;;;;4967343;28;22550;-74
2023/08/11 09:38:28;;;;;;;32.70;30.38;;;25.10;99.90;;;;;;4966201;28;20054;-75
2023/08/11 09:41:03;;;;;;;30.77;28.75;;;25.00;99.90;;;;;;4959944;28;20054;-74
2023/08/11 09:43:30;;;;;;;32.55;30.52;;;25.00;99.90;;;;;;4966892;28;20078;-74
2023/08/11 09:45:59;;;;;;;33.70;31.40;;;25.20;99.90;;;;;;4961116;28;20500;-75
2023/08/11 09:48:28;;;;;;;32.03;29.60;;;25.40;99.90;;;;;;4967444;28;20048;-76
2023/08/11 09:50:57;;;;;;;33.15;31.05;;;25.50;99.90;;;;;;4966882;28;20058;-73
2023/08/11 09:53:24;;;;;;;32.70;30.50;;;25.60;99.90;;;;;;4965351;28;20074;-74
2023/08/11 09:55:55;;;;;;;32.42;30.33;;;25.50;99.90;;;;;;4960977;28;20684;-75
2023/08/11 09:58:24;;;;;;;33.92;31.88;;;25.50;99.90;;;;;;4965643;28;20061;-75
2023/08/11 10:00:53;;;;;;;33.28;31.27;;;25.90;99.90;;;;;;4963073;28;20073;-74
2023/08/11 10:03:39;;;;;;;33.83;31.83;;;25.80;99.90;;;;;;4977394;28;20050;-73
2023/08/11 10:06:07;;;;;;;34.97;32.67;;;25.60;99.90;;;;;;4965758;28;20049;-75
2023/08/11 10:08:35;;;;;;;33.95;31.63;;;25.60;99.90;;;;;;4964458;28;20051;-74
2023/08/11 10:11:03;;;;;;;36.85;34.30;;;25.90;99.90;;;;;;4945771;28;20780;-75
2023/08/11 10:13:32;;;;;;;35.55;33.10;;;26.00;99.90;;;;;;4966897;28;20042;-75
2023/08/11 10:16:09;;;;;;;35.67;33.17;;;26.30;99.90;;;;;;4948392;28;20458;-75
2023/08/11 10:18:41;;;;;;;35.15;32.90;;;26.60;99.90;;;;;;4966853;28;20496;-75
2023/08/11 10:21:08;;;;;;;36.13;33.92;;;26.60;99.90;;;;;;4962366;28;20136;-74
2023/08/11 10:23:37;;;;;;;34.97;32.78;;;26.60;99.90;;;;;;4966476;28;20050;-75
2023/08/11 10:26:04;;;;;;;36.63;34.40;;;26.40;99.90;;;;;;4964808;28;20042;-75
2023/08/11 10:28:32;;;;;;;36.92;34.63;;;26.60;99.90;;;;;;4962593;28;20050;-75
2023/08/11 10:31:01;;;;;;;36.50;33.85;;;26.50;99.90;;;;;;4965275;28;20474;-75
2023/08/11 10:33:31;;;;;;;35.75;33.65;;;26.50;99.90;;;;;;4966033;28;20645;-74
2023/08/11 10:36:00;;;;;;;36.08;33.70;;;26.60;99.90;;;;;;4965270;28;20050;-75
2023/08/11 10:38:32;;;;;;;34.83;32.70;;;26.60;99.90;;;;;;4967703;28;20049;-75
2023/08/11 10:41:04;;;;;;;35.00;32.60;;;26.80;99.90;;;;;;4968064;28;20517;-76
2023/08/11 10:43:42;;;;;;;35.53;33.30;;;27.00;99.90;;;;;;4968786;28;20050;-74
2023/08/11 10:46:21;;;;;;;36.53;34.15;;;27.20;99.90;;;;;;4969893;28;20046;-75
2023/08/11 10:48:52;;;;;;;36.70;34.47;;;27.30;99.90;;;;;;4966760;28;20082;-74
2023/08/11 10:51:29;;;;;;;36.55;34.15;;;27.40;99.90;;;;;;4965723;28;22215;-74
2023/08/11 10:53:59;;;;;;;37.72;35.15;;;27.50;99.90;;;;;;4964417;28;20034;-75
2023/08/11 10:56:29;;;;;;;36.75;34.60;;;27.20;99.90;;;;;;4968729;28;20050;-75
2023/08/11 10:59:15;;;;;;;36.67;34.47;;;27.60;99.90;;;;;;4966775;28;20047;-75
2023/08/11 11:01:48;;;;;;;38.20;35.50;;;27.80;99.90;;;;;;4968685;28;20042;-75
2023/08/11 11:04:17;;;;;;;37.70;35.17;;;28.00;99.90;;;;;;4969578;28;20101;-75
2023/08/11 11:06:44;;;;;;;36.70;34.35;;;28.10;99.90;;;;;;4969852;28;20031;-75
2023/08/11 11:09:12;;;;;;;38.42;36.03;;;28.10;99.90;;;;;;4972159;28;20046;-75
2023/08/11 11:11:39;;;;;;;38.72;36.28;;;28.30;99.90;;;;;;4966044;28;20135;-75
2023/08/11 11:14:07;;;;;;;40.85;38.05;;;28.50;99.90;;;;;;4968780;28;20053;-75
2023/08/11 11:16:35;;;;;;;39.47;36.92;;;28.30;99.90;;;;;;4968773;28;20588;-74
2023/08/11 11:19:04;;;;;;;40.78;38.22;;;28.30;99.90;;;;;;4966785;28;20046;-74
2023/08/11 11:21:30;;;;;;;38.15;35.90;;;28.20;99.90;;;;;;4968322;28;20053;-73
2023/08/11 11:23:58;;;;;;;41.60;39.30;;;28.20;99.90;;;;;;4971201;28;20089;-75
2023/08/11 11:26:29;;;;;;;39.42;36.92;;;28.40;99.90;;;;;;4985557;28;20046;-75
2023/08/11 11:28:59;;;;;;;38.88;36.53;;;28.70;99.90;;;;;;4970256;28;20046;-74
2023/08/11 11:31:28;;;;;;;42.42;40.03;;;29.00;99.90;;;;;;4965618;28;20042;-75
2023/08/11 11:33:55;;;;;;;39.85;37.42;;;29.10;99.90;;;;;;4965641;28;20045;-74
2023/08/11 11:36:23;;;;;;;39.97;37.60;;;29.50;99.90;;;;;;4968936;28;20066;-72
2023/08/11 11:38:51;;;;;;;41.10;38.60;;;29.70;99.90;;;;;;4968040;28;20067;-69
2023/08/11 11:41:19;;;;;;;41.05;38.38;;;29.70;99.90;;;;;;4966612;28;20050;-70
2023/08/11 11:43:48;;;;;;;40.08;37.35;;;29.50;99.90;;;;;;4969033;28;20058;-70
2023/08/11 11:46:18;;;;;;;40.60;38.10;;;29.60;99.90;;;;;;4973390;28;20822;-71
2023/08/11 11:48:47;;;;;;;39.70;36.95;;;29.60;99.90;;;;;;4973594;28;20046;-71
2023/08/11 11:51:16;;;;;;;41.95;39.30;;;29.70;99.90;;;;;;4965391;28;20046;-71
2023/08/11 11:53:44;;;;;;;42.30;39.97;;;29.80;99.90;;;;;;4971252;28;20061;-71
2023/08/11 11:56:16;;;;;;;43.85;41.15;;;29.70;99.90;;;;;;4965336;28;20157;-72
2023/08/11 11:58:44;;;;;;;41.30;38.75;;;29.70;99.90;;;;;;4967550;28;20105;-71
2023/08/11 12:01:19;;;;;;;43.78;41.15;;;29.60;99.90;;;;;;4969568;28;21362;-71
2023/08/11 12:03:48;;;;;;;42.53;40.15;;;29.40;99.90;;;;;;4965829;28;20128;-70
2023/08/11 12:06:18;;;;;;;42.35;39.70;;;29.60;99.90;;;;;;4965666;28;20044;-71
2023/08/11 12:08:49;;;;;;;46.17;43.53;;;29.60;99.90;;;;;;4983568;28;20054;-71
2023/08/11 12:11:25;;;;;;;46.28;43.63;;;29.70;99.90;;;;;;4966901;28;20050;-71
2023/08/11 12:13:52;;;;;;;45.28;42.47;;;29.90;99.90;;;;;;4964903;28;20070;-70
2023/08/11 12:16:20;;;;;;;47.53;44.72;;;30.00;99.90;;;;;;4970148;28;20097;-70
2023/08/11 12:18:47;;;;;;;46.75;44.03;;;30.10;99.90;;;;;;4966616;28;20039;-70
2023/08/11 12:21:16;;;;;;;46.30;43.47;;;30.10;99.90;;;;;;4965958;28;20039;-71
2023/08/11 12:23:42;;;;;;;46.22;43.60;;;30.30;99.90;;;;;;4965033;28;20075;-71
2023/08/11 12:26:09;;;;;;;47.53;44.83;;;30.30;99.90;;;;;;4962952;28;20042;-70
2023/08/11 12:28:36;;;;;;;47.90;45.17;;;30.30;99.90;;;;;;4962141;28;20604;-70
2023/08/11 12:31:03;;;;;;;46.05;43.55;;;30.20;99.90;;;;;;4966802;28;20097;-70
2023/08/11 12:33:30;;;;;;;45.58;43.08;;;30.20;99.90;;;;;;4969224;28;20046;-71
2023/08/11 12:35:57;;;;;;;47.85;44.83;;;30.30;99.90;;;;;;4961362;28;20053;-71